Time;durP1;ratioP1;P1;durP2;ratioP2;P2;SDS_P1;SDS_P2;PMS_P1;PMS_P2;Temp;Humidity;BMP_temperature;BMP_pressure;BME280_temperature;BME280_humidity;BME280_pressure;Samples;Min_cycle;Max_cycle;Signal;HPM_P1;HPM_P2
2021/11/12 00:11:55;;;;;;;31.73;20.17;;;10.30;99.90;;;;;;5075322;28;20075;-82
2021/11/12 00:14:25;;;;;;;32.38;20.08;;;10.40;99.90;;;;;;5073483;28;20380;-82
2021/11/12 00:16:53;;;;;;;35.55;20.85;;;10.30;99.90;;;;;;5030977;28;20384;-83
2021/11/12 00:19:18;;;;;;;35.50;21.27;;;10.30;99.90;;;;;;5022930;28;20081;-82
2021/11/12 00:21:47;;;;;;;32.88;20.63;;;10.30;99.90;;;;;;5055476;28;20024;-82
2021/11/12 00:24:13;;;;;;;32.53;20.80;;;10.30;99.90;;;;;;5056443;28;20473;-82
2021/11/12 00:26:39;;;;;;;30.23;20.65;;;10.30;99.90;;;;;;5056598;28;20033;-82
2021/11/12 00:29:07;;;;;;;29.30;19.33;;;10.30;99.90;;;;;;5056559;28;20128;-82
2021/11/12 00:36:50;;;;;;;27.95;19.48;;;10.30;99.90;;;;;;5056866;28;20035;-82
2021/11/12 00:39:39;;;;;;;30.55;19.75;;;10.30;99.90;;;;;;5054157;28;20033;-82
2021/11/12 00:44:46;;;;;;;32.10;20.55;;;10.30;99.90;;;;;;5077562;28;20082;-88
2021/11/12 00:47:22;;;;;;;32.53;21.13;;;10.30;99.90;;;;;;5066856;28;20028;-87
2021/11/12 00:50:52;;;;;;;30.60;20.73;;;10.30;99.90;;;;;;5058334;28;20029;-87
2021/11/12 00:53:41;;;;;;;32.63;22.10;;;10.30;99.90;;;;;;5045724;28;20036;-87
2021/11/12 00:55:31;;;;;;;34.78;22.38;;;10.20;99.90;;;;;;5061843;28;20477;-87
2021/11/12 00:57:57;;;;;;;35.92;21.60;;;10.20;99.90;;;;;;5062449;28;20021;-86
2021/11/12 01:00:25;;;;;;;32.70;21.33;;;10.20;99.90;;;;;;5043747;28;20052;-86
2021/11/12 01:02:54;;;;;;;32.88;22.38;;;10.20;99.90;;;;;;5077528;28;20051;-86
2021/11/12 01:05:20;;;;;;;35.17;21.52;;;10.20;99.90;;;;;;5076294;28;20013;-87
2021/11/12 01:07:46;;;;;;;34.55;22.52;;;10.20;99.90;;;;;;5060274;28;20051;-87
2021/11/12 01:10:14;;;;;;;30.35;21.15;;;10.20;99.90;;;;;;5075733;28;20028;-87
2021/11/12 01:12:42;;;;;;;33.00;21.60;;;10.20;99.90;;;;;;5000746;28;1301032;-86
2021/11/12 01:15:12;;;;;;;34.20;21.73;;;10.20;99.90;;;;;;5040531;28;20278;-87
2021/11/12 01:17:38;;;;;;;34.27;22.50;;;10.20;99.90;;;;;;5046479;28;20028;-87
2021/11/12 01:20:05;;;;;;;32.75;21.10;;;10.20;99.90;;;;;;5056895;28;20101;-87
2021/11/12 01:22:33;;;;;;;29.83;20.42;;;10.20;99.90;;;;;;5039917;28;20041;-87
2021/11/12 01:25:00;;;;;;;32.40;21.77;;;10.20;99.90;;;;;;5055717;28;20140;-87
2021/11/12 01:27:26;;;;;;;33.30;21.63;;;10.20;99.90;;;;;;5050058;28;20381;-86
2021/11/12 01:29:52;;;;;;;32.95;21.67;;;10.20;99.90;;;;;;5020071;28;20166;-86
2021/11/12 01:32:19;;;;;;;33.67;21.77;;;10.20;99.90;;;;;;5036822;28;20029;-86
2021/11/12 01:34:49;;;;;;;34.00;22.50;;;10.20;99.90;;;;;;5053468;28;20470;-86
2021/11/12 01:37:19;;;;;;;34.55;21.73;;;10.20;99.90;;;;;;5053420;28;20032;-86
2021/11/12 01:39:57;;;;;;;35.17;22.77;;;10.20;99.90;;;;;;5053397;28;20092;-85
2021/11/12 01:43:03;;;;;;;32.85;20.98;;;10.20;99.90;;;;;;5054347;28;20048;-86
2021/11/12 01:45:39;;;;;;;31.52;20.90;;;10.20;99.90;;;;;;5037065;28;20508;-87
2021/11/12 01:48:21;;;;;;;34.95;21.48;;;10.20;99.90;;;;;;5022076;28;20489;-87
2021/11/12 01:51:11;;;;;;;33.70;21.42;;;10.20;99.90;;;;;;5055360;28;20445;-87
2021/11/12 01:53:37;;;;;;;32.28;20.90;;;10.10;99.90;;;;;;5027003;28;20033;-87
2021/11/12 01:56:27;;;;;;;33.58;22.13;;;10.10;99.90;;;;;;5037511;28;20022;-87
2021/11/12 02:02:08;;;;;;;34.53;20.80;;;10.10;99.90;;;;;;5053769;28;20033;-87
2021/11/12 02:04:36;;;;;;;37.65;21.30;;;10.10;99.90;;;;;;5034307;28;20029;-87
2021/11/12 02:07:02;;;;;;;35.60;22.95;;;10.10;99.90;;;;;;5053451;28;20028;-86
2021/11/12 02:09:28;;;;;;;32.85;22.65;;;10.10;99.90;;;;;;5054518;28;20021;-87
2021/11/12 02:12:42;;;;;;;34.70;22.38;;;10.10;99.90;;;;;;5032608;28;20480;-87
2021/11/12 02:15:05;;;;;;;37.40;22.77;;;10.10;99.90;;;;;;5027269;28;20074;-87
2021/11/12 02:17:33;;;;;;;31.20;20.42;;;10.00;99.90;;;;;;5040296;28;20050;-87
2021/11/12 02:20:21;;;;;;;32.15;21.50;;;10.00;99.90;;;;;;4974139;28;20019;-87
2021/11/12 02:22:52;;;;;;;39.15;23.00;;;10.00;99.90;;;;;;5046799;28;20039;-86
2021/11/12 02:25:32;;;;;;;33.72;22.05;;;10.00;99.90;;;;;;5039877;28;20172;-85
2021/11/12 02:28:02;;;;;;;34.92;22.25;;;10.00;99.90;;;;;;5039827;28;20023;-86
2021/11/12 02:30:31;;;;;;;31.17;21.48;;;10.00;99.90;;;;;;5039039;28;20104;-85
2021/11/12 02:33:12;;;;;;;36.55;22.45;;;9.90;99.90;;;;;;5039641;28;20096;-86
2021/11/12 02:35:56;;;;;;;35.45;20.92;;;9.90;99.90;;;;;;4972166;28;20015;-86
2021/11/12 02:38:22;;;;;;;34.20;23.02;;;9.90;99.90;;;;;;5026283;28;20030;-86
2021/11/12 02:40:48;;;;;;;35.15;22.70;;;9.90;99.90;;;;;;5019413;28;20027;-85
2021/11/12 02:43:14;;;;;;;37.83;22.15;;;9.80;99.90;;;;;;5053547;28;20501;-87
2021/11/12 02:45:40;;;;;;;32.72;21.60;;;9.80;99.90;;;;;;5022630;28;20054;-86
2021/11/12 02:48:06;;;;;;;33.72;21.13;;;9.80;99.90;;;;;;5041940;28;20038;-87
2021/11/12 02:51:22;;;;;;;35.47;22.25;;;9.80;99.90;;;;;;5011715;28;20403;-87
2021/11/12 02:53:49;;;;;;;36.90;23.45;;;9.70;99.90;;;;;;5038162;28;20118;-87
2021/11/12 02:56:36;;;;;;;41.25;23.63;;;9.70;99.90;;;;;;5022763;28;20088;-87
2021/11/12 02:59:12;;;;;;;35.97;22.48;;;9.70;99.90;;;;;;5027544;28;20035;-87
2021/11/12 03:01:46;;;;;;;33.92;21.23;;;9.60;99.90;;;;;;5039392;28;20028;-87
2021/11/12 03:04:14;;;;;;;40.88;22.05;;;9.60;99.90;;;;;;5039283;28;20026;-86
2021/11/12 03:06:40;;;;;;;39.40;23.48;;;9.60;99.90;;;;;;5039290;28;20046;-87
2021/11/12 03:09:08;;;;;;;40.53;24.55;;;9.50;99.90;;;;;;5038854;28;20039;-87
2021/11/12 03:11:35;;;;;;;37.83;22.92;;;9.50;99.90;;;;;;5022340;28;20051;-87
2021/11/12 03:14:56;;;;;;;34.72;22.33;;;9.50;99.90;;;;;;5021999;28;20035;-87
2021/11/12 03:17:22;;;;;;;;;;;9.50;99.90;;;;;;5041849;28;20030;-87
2021/11/12 03:19:48;;;;;;;42.42;24.25;;;9.40;99.80;;;;;;5042757;28;19910;-87
2021/11/12 03:22:18;;;;;;;37.75;23.77;;;9.40;99.60;;;;;;5042797;28;20030;-87
2021/11/12 03:24:51;;;;;;;39.13;21.95;;;9.30;99.70;;;;;;5013367;28;20037;-87
2021/11/12 03:27:24;;;;;;;38.35;23.42;;;9.30;99.70;;;;;;5043502;28;20023;-82
2021/11/12 04:20:45;;;;;;;35.67;21.65;;;9.10;99.30;;;;;;5035549;28;20037;-87
2021/11/12 05:25:25;;;;;;;34.33;21.58;;;8.00;98.30;;;;;;5074867;28;20046;-82
2021/11/12 05:44:33;;;;;;;27.50;17.88;;;7.30;98.20;;;;;;5081090;28;20506;-87
2021/11/12 05:49:58;;;;;;;33.47;17.45;;;7.20;98.60;;;;;;5038058;28;20113;-89
2021/11/12 05:55:07;;;;;;;24.92;16.83;;;7.20;98.40;;;;;;5076750;28;20032;-88
2021/11/12 05:57:34;;;;;;;27.17;17.23;;;7.20;98.30;;;;;;5049056;28;20475;-88
2021/11/12 06:00:00;;;;;;;21.75;15.52;;;7.10;98.30;;;;;;5077879;28;20020;-89
2021/11/12 06:02:26;;;;;;;25.42;16.83;;;7.10;98.20;;;;;;5054242;28;20111;-90
2021/11/12 06:04:52;;;;;;;24.13;16.75;;;7.10;98.10;;;;;;5056546;28;20029;-89
2021/11/12 06:07:17;;;;;;;23.45;16.10;;;7.10;98.00;;;;;;5078009;28;20031;-90
2021/11/12 06:09:43;;;;;;;22.52;16.02;;;7.00;98.10;;;;;;5078045;28;20460;-88
2021/11/12 06:12:12;;;;;;;28.23;16.27;;;7.00;98.10;;;;;;5077557;28;20036;-90
2021/11/12 06:14:39;;;;;;;27.33;16.63;;;6.90;98.10;;;;;;5058191;28;20013;-90
2021/11/12 06:17:05;;;;;;;25.45;16.23;;;6.90;98.10;;;;;;5077995;28;20159;-90
2021/11/12 06:19:30;;;;;;;24.80;16.15;;;6.80;98.20;;;;;;5077374;28;20023;-90
2021/11/12 06:21:56;;;;;;;25.42;16.13;;;6.80;98.20;;;;;;5076275;28;20024;-89
2021/11/12 06:24:22;;;;;;;25.42;16.08;;;6.80;98.30;;;;;;5040492;28;20040;-89
2021/11/12 06:26:48;;;;;;;25.65;16.00;;;6.70;98.30;;;;;;5057685;28;20051;-88
2021/11/12 06:29:14;;;;;;;26.58;17.70;;;6.70;98.30;;;;;;5040485;28;20030;-88
2021/11/12 06:31:40;;;;;;;25.48;17.38;;;6.70;98.40;;;;;;5088609;28;20081;-89
2021/11/12 06:34:06;;;;;;;23.17;15.88;;;6.70;98.30;;;;;;5080509;28;20047;-87
2021/11/12 06:36:32;;;;;;;24.67;16.48;;;6.60;98.30;;;;;;5060468;28;20028;-88
2021/11/12 06:38:58;;;;;;;26.23;15.77;;;6.60;98.20;;;;;;5069238;28;20459;-88
2021/11/12 06:49:57;;;;;;;24.90;16.25;;;6.50;98.30;;;;;;5094057;28;20093;-89
2021/11/12 06:52:26;;;;;;;24.23;15.35;;;6.40;98.30;;;;;;5079860;28;20357;-88
2021/11/12 06:54:53;;;;;;;23.23;15.50;;;6.40;98.40;;;;;;5072560;28;20024;-88
2021/11/12 06:57:20;;;;;;;22.23;15.18;;;6.40;98.50;;;;;;5098182;28;20103;-89
2021/11/12 06:59:47;;;;;;;23.35;16.00;;;6.40;98.40;;;;;;5083043;28;20115;-88
2021/11/12 07:02:15;;;;;;;23.63;15.82;;;6.30;98.40;;;;;;5080528;28;20028;-89
2021/11/12 07:04:40;;;;;;;23.75;15.65;;;6.30;98.40;;;;;;5097071;28;20024;-88
2021/11/12 07:07:08;;;;;;;24.92;15.98;;;6.30;98.50;;;;;;5063578;28;20051;-88
2021/11/12 07:09:35;;;;;;;22.08;14.88;;;6.30;98.60;;;;;;5085869;28;20020;-88
2021/11/12 07:12:01;;;;;;;22.92;15.20;;;6.30;98.60;;;;;;5096501;28;20036;-88
2021/11/12 07:14:26;;;;;;;22.98;15.23;;;6.30;98.90;;;;;;5086117;28;20081;-88
2021/11/12 07:16:52;;;;;;;22.67;15.73;;;6.30;98.90;;;;;;5080841;28;20035;-89
2021/11/12 07:19:18;;;;;;;22.73;15.15;;;6.20;98.80;;;;;;5063579;28;20034;-88
2021/11/12 07:21:45;;;;;;;27.25;16.08;;;6.20;98.50;;;;;;5011608;28;20123;-89
2021/11/12 07:24:10;;;;;;;24.30;15.70;;;6.10;98.30;;;;;;5091280;28;20023;-88
2021/11/12 07:26:36;;;;;;;25.17;14.98;;;6.10;98.50;;;;;;5078602;28;20408;-89
2021/11/12 07:29:02;;;;;;;24.02;15.45;;;6.10;98.70;;;;;;5056759;28;20060;-88
2021/11/12 07:31:28;;;;;;;25.98;16.13;;;6.00;98.70;;;;;;5050145;28;20385;-89
2021/11/12 07:33:58;;;;;;;24.38;14.88;;;5.90;98.70;;;;;;5059665;28;20104;-88
2021/11/12 07:36:33;;;;;;;23.77;15.73;;;5.90;98.90;;;;;;5075371;28;20051;-88
2021/11/12 07:39:01;;;;;;;24.00;15.52;;;5.90;99.00;;;;;;5081463;28;20039;-89
2021/11/12 07:49:11;;;;;;;25.50;15.15;;;5.90;99.50;;;;;;5097882;28;20024;-88
2021/11/12 07:51:40;;;;;;;27.25;16.27;;;6.00;99.50;;;;;;5091591;28;20051;-88
2021/11/12 07:54:06;;;;;;;21.30;14.63;;;6.00;99.30;;;;;;5067268;28;20062;-89
2021/11/12 07:56:32;;;;;;;22.83;16.05;;;6.00;99.30;;;;;;5062672;28;20034;-89
2021/11/12 07:58:58;;;;;;;24.45;16.20;;;6.00;99.40;;;;;;5093422;28;20110;-87
2021/11/12 08:01:24;;;;;;;26.17;15.75;;;6.00;99.40;;;;;;5076395;28;20067;-89
2021/11/12 08:03:54;;;;;;;24.33;15.65;;;6.00;99.60;;;;;;5074192;28;20152;-89
2021/11/12 08:06:20;;;;;;;26.83;16.60;;;6.00;99.50;;;;;;5064974;28;20484;-88
2021/11/12 08:09:04;;;;;;;22.45;15.32;;;6.00;99.70;;;;;;5065265;28;20464;-89
2021/11/12 08:19:06;;;;;;;22.30;15.15;;;6.10;99.70;;;;;;5060507;28;20055;-87
2021/11/12 08:21:40;;;;;;;26.05;15.18;;;6.20;99.80;;;;;;5079960;28;20081;-90
2021/11/12 08:24:32;;;;;;;22.65;15.55;;;6.20;99.70;;;;;;5080479;28;20036;-88
2021/11/12 08:27:01;;;;;;;29.42;17.35;;;6.20;99.80;;;;;;5038399;28;20086;-88
2021/11/12 08:32:24;;;;;;;24.30;16.13;;;6.30;99.80;;;;;;5076712;28;20032;-88
2021/11/12 08:35:17;;;;;;;24.90;16.33;;;6.30;99.80;;;;;;5069747;28;20036;-87
2021/11/12 08:43:16;;;;;;;27.48;16.75;;;6.40;99.70;;;;;;5060582;28;20059;-87
2021/11/12 08:45:57;;;;;;;30.45;18.10;;;6.40;99.80;;;;;;5055934;28;20031;-87
2021/11/12 08:48:34;;;;;;;29.77;18.63;;;6.50;99.90;;;;;;5042965;28;20353;-88
2021/11/12 08:51:00;;;;;;;32.05;19.42;;;6.50;99.80;;;;;;5059608;28;20096;-88
2021/11/12 08:53:26;;;;;;;32.35;20.27;;;6.50;99.90;;;;;;5020985;28;20104;-87
2021/11/12 08:55:51;;;;;;;32.75;19.50;;;6.50;99.90;;;;;;5057912;28;20115;-87
2021/11/12 08:58:17;;;;;;;31.67;19.38;;;6.50;99.90;;;;;;5040795;28;20051;-88
2021/11/12 09:00:43;;;;;;;29.67;19.27;;;6.50;99.90;;;;;;5074204;28;20065;-88
2021/11/12 09:03:09;;;;;;;31.80;18.88;;;6.50;99.90;;;;;;5058042;28;20029;-87
2021/11/12 09:05:35;;;;;;;33.95;20.95;;;6.60;99.90;;;;;;5041863;28;20035;-88
2021/11/12 09:08:01;;;;;;;30.50;19.25;;;6.60;99.90;;;;;;5058154;28;20025;-88
2021/11/12 09:10:29;;;;;;;33.60;20.90;;;6.70;99.90;;;;;;5041465;28;20384;-88
2021/11/12 09:13:17;;;;;;;32.72;19.65;;;6.70;99.90;;;;;;5038776;28;20459;-86
2021/11/12 09:15:49;;;;;;;33.03;20.65;;;6.80;99.90;;;;;;5048005;28;20039;-87
2021/11/12 09:18:14;;;;;;;33.50;20.95;;;6.80;99.70;;;;;;5039531;28;20025;-87
2021/11/12 09:20:40;;;;;;;35.33;20.40;;;6.80;99.50;;;;;;5046595;28;20146;-87
2021/11/12 09:23:06;;;;;;;37.72;21.20;;;6.80;99.60;;;;;;5056000;28;20039;-88
2021/11/12 09:25:32;;;;;;;33.47;21.25;;;6.80;99.60;;;;;;5063296;28;20068;-88
2021/11/12 09:27:57;;;;;;;33.22;19.95;;;6.80;99.50;;;;;;5060482;28;20058;-87
2021/11/12 09:30:25;;;;;;;35.55;21.83;;;6.80;99.50;;;;;;5034888;28;20036;-86
2021/11/12 09:32:55;;;;;;;34.45;21.83;;;6.90;99.60;;;;;;5048150;28;20198;-88
2021/11/12 09:35:23;;;;;;;36.35;21.80;;;6.90;99.60;;;;;;5057253;28;20464;-88
2021/11/12 09:37:48;;;;;;;35.15;20.95;;;7.00;99.50;;;;;;5039910;28;20027;-86
2021/11/12 09:40:15;;;;;;;34.42;21.95;;;7.00;99.50;;;;;;5022482;28;20096;-87
2021/11/12 09:42:43;;;;;;;32.92;20.55;;;7.00;99.60;;;;;;5036517;28;20084;-88
2021/11/12 09:45:10;;;;;;;40.42;21.95;;;7.10;99.70;;;;;;5056272;28;20021;-88
2021/11/12 09:47:37;;;;;;;38.65;22.15;;;7.10;99.60;;;;;;5054795;28;20028;-88
2021/11/12 09:50:08;;;;;;;37.05;21.98;;;7.20;99.60;;;;;;5056043;28;20021;-88
2021/11/12 09:52:34;;;;;;;;;;;7.20;99.50;;;;;;5054428;28;20392;-88
2021/11/12 09:55:00;;;;;;;33.40;20.30;;;7.20;99.30;;;;;;5040829;28;19961;-88
2021/11/12 09:57:26;;;;;;;39.00;21.25;;;7.30;99.30;;;;;;5056757;28;20028;-89
2021/11/12 09:59:58;;;;;;;40.22;22.50;;;7.30;99.10;;;;;;5058688;28;20029;-89
2021/11/12 10:02:28;;;;;;;40.38;22.55;;;7.30;98.70;;;;;;5053501;28;20020;-88
2021/11/12 10:04:53;;;;;;;36.20;22.20;;;7.30;98.90;;;;;;5060728;28;20024;-90
2021/11/12 10:07:21;;;;;;;38.80;22.42;;;7.30;98.90;;;;;;5081610;28;20103;-89
2021/11/12 10:10:01;;;;;;;39.67;22.15;;;7.30;99.00;;;;;;5060253;28;20139;-88
2021/11/12 10:12:44;;;;;;;41.20;22.95;;;7.40;99.10;;;;;;5085748;28;20031;-89
2021/11/12 10:15:15;;;;;;;37.80;20.90;;;7.50;99.00;;;;;;5058119;28;20024;-87
2021/11/12 10:17:41;;;;;;;;;;;7.50;99.20;;;;;;5057302;28;20043;-88
2021/11/12 10:20:09;;;;;;;35.78;22.20;;;7.50;99.00;;;;;;5059148;28;19914;-89
2021/11/12 10:22:38;;;;;;;36.85;22.73;;;7.60;99.00;;;;;;5057039;28;20524;-88
2021/11/12 10:25:07;;;;;;;39.38;23.42;;;7.60;98.70;;;;;;5074135;28;20025;-88
2021/11/12 10:27:34;;;;;;;37.28;23.40;;;7.70;98.80;;;;;;5018303;28;20026;-88
2021/11/12 10:30:15;;;;;;;36.88;22.42;;;7.70;98.60;;;;;;5094878;28;20105;-88
2021/11/12 10:32:42;;;;;;;34.20;22.55;;;7.80;98.70;;;;;;5080518;28;20032;-88
2021/11/12 10:35:30;;;;;;;33.72;20.90;;;7.80;98.40;;;;;;5056665;28;20029;-89
2021/11/12 10:38:09;;;;;;;34.72;22.02;;;7.90;98.50;;;;;;5059896;28;20049;-89
2021/11/12 10:40:35;;;;;;;35.70;21.90;;;7.90;98.50;;;;;;5067260;28;20042;-88
2021/11/12 10:43:01;;;;;;;36.75;23.38;;;7.90;98.50;;;;;;5068074;28;20056;-87
2021/11/12 10:45:34;;;;;;;37.28;22.77;;;8.00;98.30;;;;;;5046906;28;20022;-87
2021/11/12 10:48:03;;;;;;;35.60;22.77;;;8.10;98.00;;;;;;5065092;28;20027;-87
2021/11/12 10:50:35;;;;;;;34.15;21.23;;;8.10;98.10;;;;;;5078858;28;20028;-87
2021/11/12 10:53:16;;;;;;;34.10;21.30;;;8.10;98.10;;;;;;5076069;28;20537;-87
2021/11/12 10:55:53;;;;;;;34.85;22.33;;;8.20;98.10;;;;;;5076259;28;20376;-88
2021/11/12 10:58:20;;;;;;;32.28;20.75;;;8.30;98.30;;;;;;5075928;28;20062;-88
2021/11/12 11:00:48;;;;;;;33.00;22.15;;;8.30;98.00;;;;;;5057472;28;20036;-89
2021/11/12 11:03:22;;;;;;;37.55;22.38;;;8.40;98.00;;;;;;5093816;28;20032;-88
2021/11/12 11:05:51;;;;;;;32.50;21.75;;;8.50;98.00;;;;;;5073392;28;20029;-88
2021/11/12 11:08:25;;;;;;;33.85;21.80;;;8.60;97.90;;;;;;5076161;28;20376;-88
2021/11/12 11:11:02;;;;;;;34.05;22.42;;;8.60;97.90;;;;;;5076277;28;20022;-88
2021/11/12 11:13:35;;;;;;;35.65;20.77;;;8.70;97.80;;;;;;5044193;28;20031;-88
2021/11/12 11:16:06;;;;;;;33.72;22.17;;;8.80;97.90;;;;;;5051802;28;20031;-88
2021/11/12 11:18:43;;;;;;;33.65;22.27;;;8.90;97.40;;;;;;5050250;28;20047;-87
2021/11/12 11:21:24;;;;;;;33.75;22.75;;;9.00;97.00;;;;;;5096546;28;20029;-88
2021/11/12 11:24:02;;;;;;;35.78;22.88;;;9.00;96.70;;;;;;5096906;28;20031;-87
2021/11/12 11:26:39;;;;;;;33.65;21.55;;;9.10;96.50;;;;;;5074828;28;20166;-88
2021/11/12 11:29:08;;;;;;;34.70;22.90;;;9.10;96.60;;;;;;5066769;28;20119;-88
2021/11/12 11:31:34;;;;;;;38.22;23.23;;;9.20;96.70;;;;;;5074449;28;20028;-88
2021/11/12 11:34:03;;;;;;;35.70;22.50;;;9.20;96.70;;;;;;5060889;28;20040;-87
2021/11/12 11:36:32;;;;;;;32.75;22.30;;;9.30;97.00;;;;;;5069836;28;20020;-88
2021/11/12 11:39:02;;;;;;;35.38;23.40;;;9.40;95.80;;;;;;5079107;28;20070;-88
2021/11/12 11:41:28;;;;;;;33.08;21.80;;;9.50;96.20;;;;;;5078444;28;20062;-87
2021/11/12 11:43:57;;;;;;;36.53;22.92;;;9.50;96.20;;;;;;5059395;28;20032;-87
2021/11/12 11:46:27;;;;;;;33.45;22.92;;;9.60;95.80;;;;;;5071706;28;20120;-87
2021/11/12 11:48:54;;;;;;;36.95;21.95;;;9.70;95.20;;;;;;5080279;28;20472;-85
2021/11/12 11:51:28;;;;;;;36.47;22.88;;;9.80;95.50;;;;;;5093857;28;20094;-88
2021/11/12 11:53:54;;;;;;;39.17;22.33;;;9.80;95.80;;;;;;5104343;28;20032;-87
2021/11/12 11:56:30;;;;;;;32.83;22.00;;;10.00;96.00;;;;;;5067108;28;20031;-88
2021/11/12 11:59:10;;;;;;;34.80;22.20;;;10.10;95.80;;;;;;5078836;28;20050;-88
2021/11/12 12:01:44;;;;;;;35.20;21.90;;;10.20;95.20;;;;;;5091017;28;20024;-89
2021/11/12 12:04:13;;;;;;;36.55;23.40;;;10.20;94.60;;;;;;5098712;28;20120;-89
2021/11/12 12:06:58;;;;;;;35.75;23.40;;;10.20;94.40;;;;;;5085860;28;20499;-89
2021/11/12 12:09:42;;;;;;;36.65;23.75;;;10.20;93.70;;;;;;4991700;28;20027;-88
2021/11/12 12:12:08;;;;;;;32.28;22.75;;;10.10;93.80;;;;;;5086413;28;20023;-88
2021/11/12 12:14:36;;;;;;;36.72;23.50;;;10.20;94.40;;;;;;5076754;28;20040;-88
2021/11/12 12:17:10;;;;;;;38.50;24.33;;;10.20;94.20;;;;;;5061083;28;20055;-88
2021/11/12 13:25:54;;;;;;;31.98;22.80;;;10.30;94.10;;;;;;5097238;28;20544;-86
2021/11/12 13:28:26;;;;;;;35.15;23.45;;;10.30;94.00;;;;;;5087192;28;20016;-87
2021/11/12 13:30:59;;;;;;;34.15;23.08;;;10.30;93.70;;;;;;5076322;28;20031;-87
2021/11/12 13:33:52;;;;;;;37.50;24.38;;;10.30;93.70;;;;;;5075714;28;20032;-87
2021/11/12 13:36:29;;;;;;;35.33;23.02;;;10.30;93.40;;;;;;5076115;28;20486;-87
2021/11/12 13:39:01;;;;;;;35.97;24.00;;;10.30;93.60;;;;;;5080961;28;20103;-86
2021/11/12 13:41:37;;;;;;;31.95;22.38;;;10.30;93.80;;;;;;5075628;28;20480;-86
2021/11/12 13:44:16;;;;;;;33.92;23.50;;;10.30;93.40;;;;;;5071144;28;20472;-86
2021/11/12 13:47:00;;;;;;;36.33;24.52;;;10.30;93.80;;;;;;5075712;28;20020;-87
2021/11/12 13:49:27;;;;;;;35.30;23.58;;;10.20;93.20;;;;;;5076224;28;20031;-87
2021/11/12 13:52:04;;;;;;;35.97;22.98;;;10.10;93.30;;;;;;5075918;28;20020;-86
2021/11/12 13:54:50;;;;;;;32.92;22.30;;;10.10;93.40;;;;;;5075928;28;20032;-87
2021/11/12 13:57:25;;;;;;;34.17;21.55;;;10.00;93.60;;;;;;5075306;28;20013;-86
2021/11/12 14:00:01;;;;;;;32.95;22.52;;;10.00;93.80;;;;;;5058269;28;20037;-87
2021/11/12 14:02:55;;;;;;;34.63;23.73;;;10.00;94.10;;;;;;5056131;28;20037;-86
2021/11/12 14:05:22;;;;;;;37.90;22.48;;;10.00;94.00;;;;;;5075893;28;20096;-87
2021/11/12 14:08:09;;;;;;;35.00;22.83;;;10.00;94.30;;;;;;5093908;28;20047;-87
2021/11/12 14:10:41;;;;;;;34.30;22.55;;;10.00;94.50;;;;;;5076068;28;20024;-88
2021/11/12 14:13:09;;;;;;;36.65;23.17;;;10.00;94.40;;;;;;5016436;28;20034;-88
2021/11/12 14:18:36;;;;;;;32.53;22.05;;;10.00;94.30;;;;;;5093500;28;20052;-85
2021/11/12 14:23:56;;;;;;;32.22;21.90;;;10.00;94.30;;;;;;5079885;28;20037;-86
2021/11/12 14:26:51;;;;;;;31.95;21.48;;;10.00;94.20;;;;;;5074799;28;20106;-87
2021/11/12 14:29:14;;;;;;;33.42;21.55;;;10.00;94.50;;;;;;5092899;28;20111;-87
2021/11/12 14:37:22;;;;;;;34.03;22.25;;;10.00;94.60;;;;;;5038114;28;20085;-86
2021/11/12 14:45:38;;;;;;;34.53;21.73;;;10.10;94.70;;;;;;5093469;28;20028;-88
2021/11/12 14:48:22;;;;;;;32.78;21.83;;;10.10;94.70;;;;;;5075304;28;20488;-86
2021/11/12 14:56:12;;;;;;;34.42;22.25;;;10.00;94.60;;;;;;5086563;28;20036;-89
2021/11/12 14:58:55;;;;;;;31.38;21.13;;;10.00;94.60;;;;;;5088062;28;20113;-87
2021/11/12 15:01:27;;;;;;;34.13;21.75;;;10.00;94.70;;;;;;5087732;28;20020;-87
2021/11/12 15:03:54;;;;;;;33.63;21.88;;;10.00;94.60;;;;;;5075225;28;20032;-87
2021/11/12 15:06:26;;;;;;;28.52;20.08;;;10.00;95.00;;;;;;5075201;28;20024;-87
2021/11/12 15:09:06;;;;;;;32.55;22.48;;;10.00;95.10;;;;;;5049198;28;20049;-87
2021/11/12 15:11:34;;;;;;;30.40;21.05;;;10.00;94.80;;;;;;5085504;28;20048;-90
2021/11/12 15:14:10;;;;;;;30.30;21.20;;;10.00;95.00;;;;;;5088757;28;20130;-87
2021/11/12 15:16:38;;;;;;;33.05;21.00;;;10.00;95.10;;;;;;5081331;28;20276;-88
2021/11/12 15:19:06;;;;;;;28.42;20.45;;;10.00;95.00;;;;;;5079625;28;20028;-87
2021/11/12 15:21:40;;;;;;;32.72;21.83;;;10.00;95.10;;;;;;5079650;28;20069;-87
2021/11/12 15:24:15;;;;;;;29.50;20.02;;;10.00;95.20;;;;;;5083251;28;20028;-87
2021/11/12 15:29:31;;;;;;;34.40;22.27;;;10.10;95.20;;;;;;5068565;28;20468;-88
2021/11/12 15:32:21;;;;;;;30.08;21.40;;;10.10;95.20;;;;;;5035051;28;20031;-88
2021/11/12 15:37:27;;;;;;;32.13;22.58;;;10.00;95.10;;;;;;5040747;28;20290;-87
2021/11/12 15:39:57;;;;;;;37.45;22.95;;;10.00;95.00;;;;;;5025974;28;20055;-87
2021/11/12 15:47:45;;;;;;;32.45;20.38;;;9.90;95.20;;;;;;5072915;28;20064;-87
2021/11/12 15:50:16;;;;;;;28.13;19.17;;;9.90;95.20;;;;;;5067168;28;20426;-87
2021/11/12 15:52:59;;;;;;;30.83;21.58;;;9.90;95.30;;;;;;5052037;28;20029;-90
2021/11/12 15:55:43;;;;;;;28.15;19.85;;;9.90;95.60;;;;;;5054459;28;20059;-87
2021/11/12 16:08:45;;;;;;;28.08;20.08;;;9.90;95.50;;;;;;5067857;28;20380;-87
2021/11/12 16:27:04;;;;;;;30.23;19.95;;;9.80;95.60;;;;;;5080887;28;20112;-87
2021/11/12 16:31:59;;;;;;;26.13;19.55;;;9.80;95.70;;;;;;5088095;28;20067;-88
2021/11/12 16:34:25;;;;;;;27.75;19.90;;;9.80;95.80;;;;;;5061876;28;20040;-91
2021/11/12 16:37:02;;;;;;;30.67;20.25;;;9.70;95.80;;;;;;5093269;28;20051;-88
2021/11/12 16:39:34;;;;;;;28.73;20.50;;;9.70;95.90;;;;;;5074250;28;20024;-87
2021/11/12 16:42:19;;;;;;;29.15;20.13;;;9.80;96.00;;;;;;5074588;28;20020;-87
2021/11/12 16:52:26;;;;;;;29.15;18.38;;;9.80;95.90;;;;;;5077278;28;20051;-88
2021/11/12 17:00:22;;;;;;;28.20;18.58;;;9.70;95.90;;;;;;5065408;28;20028;-88
2021/11/12 17:11:13;;;;;;;25.73;17.10;;;9.70;96.10;;;;;;5049036;28;20064;-87
2021/11/12 17:19:34;;;;;;;29.33;18.35;;;9.70;96.10;;;;;;5080096;28;20039;-89
2021/11/12 18:02:47;;;;;;;19.40;13.98;;;9.50;96.80;;;;;;5094277;28;20136;-88
2021/11/12 18:23:28;;;;;;;20.70;14.38;;;9.80;96.40;;;;;;5093652;28;20491;-89
2021/11/12 21:45:35;;;;;;;14.65;10.40;;;9.90;99.20;;;;;;5081432;28;20038;-88
2021/11/12 21:48:02;;;;;;;18.63;10.93;;;9.90;99.30;;;;;;5068577;28;20368;-89
2021/11/12 21:50:28;;;;;;;17.30;11.00;;;9.90;99.40;;;;;;5075730;28;20016;-88
2021/11/12 21:52:54;;;;;;;19.23;10.80;;;9.90;99.50;;;;;;5057805;28;20031;-88
2021/11/12 21:55:19;;;;;;;17.13;11.20;;;9.90;99.60;;;;;;5046502;28;20070;-88
2021/11/12 21:57:45;;;;;;;16.95;11.55;;;10.00;99.70;;;;;;5081281;28;20476;-88
2021/11/12 22:00:12;;;;;;;16.83;11.63;;;10.00;99.80;;;;;;5062539;28;20181;-86
2021/11/12 22:02:39;;;;;;;17.67;11.55;;;10.00;99.90;;;;;;5061855;28;20016;-87
2021/11/12 22:05:05;;;;;;;19.63;12.45;;;10.00;99.90;;;;;;5097669;28;20448;-89
2021/11/12 22:07:31;;;;;;;20.00;12.02;;;10.00;99.90;;;;;;5049578;28;20530;-88
2021/11/12 22:09:56;;;;;;;19.50;12.05;;;10.10;99.90;;;;;;5065980;28;20116;-88
2021/11/12 22:12:22;;;;;;;20.35;12.55;;;10.10;99.90;;;;;;4993585;28;20026;-88
2021/11/12 22:14:48;;;;;;;19.13;12.75;;;10.10;99.90;;;;;;5060413;28;20103;-88
2021/11/12 22:17:14;;;;;;;19.80;12.40;;;10.20;99.90;;;;;;5077001;28;20024;-88
2021/11/12 22:19:40;;;;;;;19.73;11.68;;;10.20;99.90;;;;;;5058877;28;20012;-89
2021/11/12 22:22:05;;;;;;;19.80;12.07;;;10.20;99.90;;;;;;5076875;28;20028;-88
2021/11/12 22:24:31;;;;;;;18.92;12.10;;;10.20;99.90;;;;;;5057607;28;20074;-89
2021/11/12 22:26:57;;;;;;;22.42;12.57;;;10.20;99.90;;;;;;5073752;28;20093;-88
2021/11/12 22:29:23;;;;;;;18.27;12.65;;;10.30;99.90;;;;;;5077477;28;20468;-88
2021/11/12 22:31:49;;;;;;;20.92;12.25;;;10.20;99.90;;;;;;5074118;28;20033;-88
2021/11/12 22:34:15;;;;;;;18.65;11.88;;;10.20;99.90;;;;;;5077953;28;20024;-88
2021/11/12 22:36:41;;;;;;;21.17;12.75;;;10.20;99.90;;;;;;5078001;28;20023;-88
2021/11/12 22:39:11;;;;;;;22.75;12.90;;;10.30;99.90;;;;;;5094266;28;20034;-88
2021/11/12 22:41:37;;;;;;;21.05;12.82;;;10.30;99.90;;;;;;5096703;28;20054;-90
2021/11/12 22:44:04;;;;;;;19.20;12.07;;;10.30;99.90;;;;;;5095032;28;20024;-90
2021/11/12 22:46:31;;;;;;;21.25;13.20;;;10.30;99.90;;;;;;5080737;28;20103;-90
2021/11/12 22:48:57;;;;;;;18.92;12.73;;;10.20;99.90;;;;;;5077964;28;20024;-91
2021/11/12 22:51:22;;;;;;;17.65;11.77;;;10.30;99.90;;;;;;5077816;28;20054;-89
2021/11/12 22:53:48;;;;;;;19.23;12.02;;;10.30;99.90;;;;;;5060678;28;20119;-89
2021/11/12 22:56:14;;;;;;;18.42;12.20;;;10.30;99.90;;;;;;5060539;28;20028;-94